createdAt,value
2022-09-24T00:01:41.991Z,97.30
2022-09-24T00:04:11.763Z,97.47
2022-09-24T00:06:42.203Z,97.26
2022-09-24T00:09:10.767Z,97.31
2022-09-24T00:11:39.630Z,97.69
2022-09-24T00:14:09.221Z,96.76
2022-09-24T00:16:37.173Z,95.89
2022-09-24T00:19:06.447Z,96.13
2022-09-24T00:21:36.041Z,95.92
2022-09-24T00:24:06.275Z,95.57
2022-09-24T00:26:51.549Z,95.67
2022-09-24T00:29:21.682Z,96.05
2022-09-24T00:31:50.727Z,95.77
2022-09-24T00:34:19.184Z,95.51
2022-09-24T00:36:47.223Z,95.19
2022-09-24T00:39:15.566Z,95.37
2022-09-24T00:41:48.762Z,95.98
2022-09-24T00:45:04.889Z,95.30
2022-09-24T00:47:37.093Z,95.50
2022-09-24T00:50:15.385Z,96.35
2022-09-24T00:52:47.087Z,95.63
2022-09-24T00:55:16.512Z,95.59
2022-09-24T00:57:46.158Z,96.01
2022-09-24T01:00:15.655Z,96.11
2022-09-24T01:02:50.090Z,95.81
2022-09-24T01:05:18.138Z,95.80
2022-09-24T01:07:48.195Z,96.40
2022-09-24T01:10:38.161Z,97.00
2022-09-24T01:13:17.644Z,96.74
2022-09-24T01:15:53.789Z,96.51
2022-09-24T01:18:34.656Z,96.47
2022-09-24T01:21:32.820Z,96.86
2022-09-24T01:24:25.053Z,97.07
2022-09-24T01:27:02.588Z,97.60
2022-09-24T01:29:43.438Z,98.43
2022-09-24T01:32:20.448Z,98.51
2022-09-24T01:34:51.371Z,98.48
2022-09-24T01:37:24.268Z,98.93
2022-09-24T01:39:55.462Z,98.90
2022-09-24T01:42:25.023Z,99.49
2022-09-24T01:44:55.912Z,99.06
2022-09-24T01:47:34.364Z,99.21
2022-09-24T01:50:03.760Z,99.95
2022-09-24T01:52:36.961Z,100.00
2022-09-24T01:55:09.221Z,100.00
2022-09-24T01:57:40.681Z,99.85
2022-09-24T02:00:13.453Z,100.00
2022-09-24T02:02:46.436Z,99.97
2022-09-24T02:05:19.565Z,99.95
2022-09-24T02:07:53.728Z,99.77
2022-09-24T02:10:22.182Z,100.00
2022-09-24T02:12:55.113Z,99.76
2022-09-24T02:15:32.304Z,99.84
2022-09-24T02:18:05.659Z,99.44
2022-09-24T02:20:36.533Z,99.16
2022-09-24T02:23:05.974Z,98.59
2022-09-24T02:25:38.631Z,98.93
2022-09-24T02:28:06.520Z,98.48
2022-09-24T02:30:41.794Z,98.34
2022-09-24T02:33:32.725Z,98.36
2022-09-24T02:35:59.643Z,98.36
2022-09-24T02:38:27.825Z,99.24
2022-09-24T02:40:55.745Z,99.58
2022-09-24T02:43:23.504Z,99.41
2022-09-24T02:45:52.658Z,100.00
2022-09-24T02:48:20.492Z,100.00
2022-09-24T02:50:48.188Z,99.70
2022-09-24T02:53:16.201Z,100.00
2022-09-24T02:55:43.992Z,100.00
2022-09-24T02:58:12.264Z,100.00
2022-09-24T03:00:40.035Z,100.00
2022-09-24T03:03:09.232Z,100.00
2022-09-24T03:05:37.072Z,100.00
2022-09-24T03:08:07.477Z,100.00
2022-09-24T03:10:35.267Z,100.00
2022-09-24T03:13:03.028Z,100.00
2022-09-24T03:15:30.828Z,100.00
2022-09-24T03:17:58.630Z,100.00
2022-09-24T03:20:28.161Z,100.00
2022-09-24T03:22:56.233Z,100.00
2022-09-24T03:25:25.216Z,100.00
2022-09-24T03:27:53.007Z,100.00
2022-09-24T03:30:38.313Z,100.00
2022-09-24T03:33:06.098Z,100.00
2022-09-24T03:35:35.370Z,100.00
2022-09-24T03:38:03.048Z,100.00
2022-09-24T03:40:30.910Z,100.00
2022-09-24T03:42:58.700Z,100.00
2022-09-24T03:45:26.622Z,100.00
2022-09-24T03:47:54.654Z,100.00
2022-09-24T03:50:22.578Z,100.00
2022-09-24T03:52:51.677Z,100.00
2022-09-24T03:55:19.485Z,100.00
2022-09-24T03:57:47.293Z,100.00
2022-09-24T04:00:15.783Z,100.00
2022-09-24T04:02:43.732Z,100.00
2022-09-24T04:05:11.488Z,100.00
2022-09-24T04:07:39.245Z,100.00
2022-09-24T04:10:09.969Z,100.00
2022-09-24T04:12:37.786Z,100.00
2022-09-24T04:15:06.316Z,100.00
2022-09-24T04:17:34.059Z,100.00
2022-09-24T04:20:02.600Z,100.00
2022-09-24T04:22:30.864Z,100.00
2022-09-24T04:24:58.612Z,100.00
2022-09-24T04:27:27.994Z,100.00
2022-09-24T04:29:55.736Z,100.00
2022-09-24T04:32:23.848Z,99.99
2022-09-24T04:34:51.600Z,100.00
2022-09-24T04:37:19.418Z,100.00
2022-09-24T04:39:47.220Z,99.94
2022-09-24T04:42:18.167Z,100.00
2022-09-24T04:44:48.447Z,100.00
2022-09-24T04:47:18.306Z,100.00
2022-09-24T04:49:46.410Z,100.00
2022-09-24T04:52:16.032Z,100.00
2022-09-24T04:54:47.336Z,100.00
2022-09-24T04:57:16.016Z,100.00
2022-09-24T04:59:44.427Z,100.00
2022-09-24T05:02:13.615Z,100.00
2022-09-24T05:04:41.475Z,100.00
2022-09-24T05:07:09.238Z,100.00
2022-09-24T05:09:37.154Z,100.00
2022-09-24T05:12:05.677Z,100.00
2022-09-24T05:14:33.452Z,100.00
2022-09-24T05:17:01.386Z,100.00
2022-09-24T05:19:30.481Z,100.00
2022-09-24T05:21:58.895Z,100.00
2022-09-24T05:24:26.674Z,99.70
2022-09-24T05:27:17.260Z,99.31
2022-09-24T05:29:45.105Z,98.88
2022-09-24T05:32:15.158Z,98.78
2022-09-24T05:34:45.582Z,98.71
2022-09-24T05:37:14.995Z,98.74
2022-09-24T05:39:42.990Z,98.91
2022-09-24T05:42:13.833Z,98.54
2022-09-24T05:44:42.816Z,98.14
2022-09-24T05:47:11.036Z,98.00
2022-09-24T05:49:39.203Z,98.13
2022-09-24T05:52:09.897Z,98.58
2022-09-24T05:54:37.636Z,98.52
2022-09-24T05:57:05.341Z,97.89
2022-09-24T05:59:33.292Z,97.44
2022-09-24T06:02:01.278Z,97.36
2022-09-24T06:04:29.095Z,97.57
2022-09-24T06:06:56.895Z,97.04
2022-09-24T06:09:26.038Z,97.20
2022-09-24T06:11:53.995Z,96.44
2022-09-24T06:14:21.798Z,96.23
2022-09-24T06:16:49.961Z,96.58
2022-09-24T06:19:17.724Z,96.28
2022-09-24T06:21:45.425Z,96.34
2022-09-24T06:24:13.123Z,96.45
2022-09-24T06:26:42.234Z,95.74
2022-09-24T06:29:10.401Z,95.35
2022-09-24T06:31:38.400Z,95.22
2022-09-24T06:34:06.250Z,95.43
2022-09-24T06:36:34.046Z,96.02
2022-09-24T06:39:02.033Z,95.78
2022-09-24T06:41:29.875Z,95.25
2022-09-24T06:43:59.310Z,94.63
2022-09-24T06:46:27.381Z,94.09
2022-09-24T06:48:55.651Z,93.37
2022-09-24T06:51:23.527Z,93.50
2022-09-24T06:53:52.471Z,93.91
2022-09-24T06:56:20.345Z,93.31
2022-09-24T06:58:48.180Z,93.29
2022-09-24T07:01:17.413Z,93.22
2022-09-24T07:03:45.329Z,93.64
2022-09-24T07:06:13.533Z,92.99
2022-09-24T07:08:41.339Z,92.87
2022-09-24T07:11:09.141Z,92.36
2022-09-24T07:13:36.989Z,92.20
2022-09-24T07:16:04.938Z,91.89
2022-09-24T07:18:34.116Z,91.61
2022-09-24T07:21:01.897Z,90.53
2022-09-24T07:23:29.767Z,88.72
2022-09-24T07:25:58.353Z,88.24
2022-09-24T07:28:26.285Z,86.97
2022-09-24T07:30:58.459Z,87.13
2022-09-24T07:33:26.383Z,85.25
2022-09-24T07:35:55.524Z,84.15
2022-09-24T07:38:23.995Z,83.20
2022-09-24T07:40:52.952Z,82.70
2022-09-24T07:43:22.256Z,83.06
2022-09-24T07:45:50.141Z,82.90
2022-09-24T07:48:17.971Z,81.80
2022-09-24T07:50:45.782Z,83.16
2022-09-24T07:53:16.768Z,83.94
2022-09-24T07:55:45.384Z,84.18
2022-09-24T07:58:15.037Z,84.51
2022-09-24T08:00:43.522Z,84.02
2022-09-24T08:03:11.690Z,83.31
2022-09-24T08:05:44.152Z,83.93
2022-09-24T08:08:12.202Z,83.36
2022-09-24T08:10:42.078Z,83.20
2022-09-24T08:13:09.879Z,83.20
2022-09-24T08:15:37.770Z,82.88
2022-09-24T08:18:06.409Z,82.93
2022-09-24T08:20:34.916Z,82.06
2022-09-24T08:23:03.211Z,81.22
2022-09-24T08:25:31.740Z,81.06
2022-09-24T08:28:04.406Z,80.53
2022-09-24T08:30:32.536Z,80.77
2022-09-24T08:33:00.442Z,81.17
2022-09-24T08:35:28.529Z,80.83
2022-09-24T08:37:56.643Z,80.13
2022-09-24T08:40:27.983Z,80.53
2022-09-24T08:43:07.454Z,80.04
2022-09-24T08:46:02.844Z,81.23
2022-09-24T08:48:35.386Z,81.42
2022-09-24T08:51:08.531Z,81.58
2022-09-24T08:53:45.566Z,81.56
2022-09-24T08:56:13.682Z,81.30
2022-09-24T08:58:47.621Z,81.66
2022-09-24T09:01:26.834Z,82.51
2022-09-24T09:03:59.344Z,81.25
2022-09-24T09:06:49.199Z,80.01
2022-09-24T09:09:20.910Z,80.67
2022-09-24T09:11:52.452Z,79.70
2022-09-24T09:14:23.752Z,80.36
2022-09-24T09:16:56.496Z,78.66
2022-09-24T09:19:29.910Z,77.83
2022-09-24T09:22:03.363Z,76.56
2022-09-24T09:24:41.954Z,75.80
2022-09-24T09:27:14.676Z,73.01
2022-09-24T09:29:43.220Z,70.39
2022-09-24T09:32:28.819Z,69.77
2022-09-24T09:35:06.641Z,70.57
2022-09-24T09:37:42.114Z,70.46
2022-09-24T09:40:32.135Z,70.14
2022-09-24T09:43:02.732Z,69.42
2022-09-24T09:45:35.204Z,68.34
2022-09-24T09:48:04.844Z,68.03
2022-09-24T09:50:38.217Z,70.84
2022-09-24T09:53:06.694Z,70.10
2022-09-24T09:55:37.241Z,69.12
2022-09-24T09:58:20.824Z,69.52
2022-09-24T10:00:49.847Z,70.56
2022-09-24T10:03:28.799Z,71.32
2022-09-24T10:05:58.542Z,72.19
2022-09-24T10:08:26.959Z,71.66
2022-09-24T10:10:56.303Z,71.28
2022-09-24T10:13:24.865Z,70.54
2022-09-24T10:15:54.983Z,71.12
2022-09-24T10:18:32.730Z,70.17
2022-09-24T10:21:03.326Z,69.39
2022-09-24T10:23:36.414Z,68.36
2022-09-24T10:26:05.778Z,67.60
2022-09-24T10:28:52.746Z,66.62
2022-09-24T10:31:23.575Z,67.43
2022-09-24T10:33:56.465Z,66.29
2022-09-24T10:36:27.176Z,66.54
2022-09-24T10:39:04.626Z,68.03
2022-09-24T10:41:33.048Z,65.56
2022-09-24T10:44:05.460Z,65.14
2022-09-24T10:47:07.935Z,63.99
2022-09-24T10:49:48.964Z,62.20
2022-09-24T10:52:33.646Z,62.89
2022-09-24T10:55:15.170Z,64.80
2022-09-24T10:57:51.047Z,63.75
2022-09-24T11:00:21.883Z,63.04
2022-09-24T11:03:34.908Z,64.32
2022-09-24T11:06:18.794Z,65.71
2022-09-24T11:09:00.926Z,64.34
2022-09-24T11:11:40.048Z,64.40
2022-09-24T11:14:24.097Z,65.82
2022-09-24T11:17:20.568Z,62.98
2022-09-24T11:20:14.645Z,65.64
2022-09-24T11:23:03.152Z,65.84
2022-09-24T11:25:39.741Z,68.25
2022-09-24T11:28:21.142Z,68.91
2022-09-24T11:30:59.910Z,69.42
2022-09-24T11:33:41.338Z,70.83
2022-09-24T11:36:24.440Z,70.93
2022-09-24T11:39:07.597Z,71.41
2022-09-24T11:41:45.883Z,70.88
2022-09-24T11:44:46.624Z,70.53
2022-09-24T11:47:27.124Z,69.80
2022-09-24T11:50:13.856Z,69.89
2022-09-24T11:52:46.619Z,69.67
2022-09-24T11:55:20.053Z,70.16
2022-09-24T11:57:55.295Z,72.12
2022-09-24T12:00:23.086Z,70.28
2022-09-24T12:02:55.619Z,70.36
2022-09-24T12:05:31.550Z,70.33
2022-09-24T12:08:04.266Z,70.77
2022-09-24T12:10:38.788Z,70.83
2022-09-24T12:13:15.918Z,70.54
2022-09-24T12:15:49.442Z,70.56
2022-09-24T12:18:22.285Z,69.90
2022-09-24T12:20:53.718Z,69.89
2022-09-24T12:23:27.888Z,70.30
2022-09-24T12:25:59.424Z,70.65
2022-09-24T12:28:52.627Z,70.28
2022-09-24T12:31:45.407Z,70.92
2022-09-24T12:34:21.482Z,72.05
2022-09-24T12:36:58.965Z,72.40
2022-09-24T12:39:32.391Z,70.49
2022-09-24T12:42:05.480Z,69.94
2022-09-24T12:44:42.956Z,70.07
2022-09-24T12:47:21.020Z,69.81
2022-09-24T12:49:53.147Z,69.99
2022-09-24T12:52:26.904Z,70.46
2022-09-24T12:55:00.407Z,70.21
2022-09-24T12:57:33.494Z,70.37
2022-09-24T13:00:03.045Z,71.35
2022-09-24T13:02:33.210Z,71.34
2022-09-24T13:05:17.403Z,71.17
2022-09-24T13:07:57.570Z,71.69
2022-09-24T13:10:28.223Z,72.78
2022-09-24T13:12:59.881Z,72.66
2022-09-24T13:15:33.670Z,72.11
2022-09-24T13:18:05.026Z,71.82
2022-09-24T13:20:34.936Z,73.54
2022-09-24T13:23:16.382Z,72.06
2022-09-24T13:25:55.791Z,71.89
2022-09-24T13:28:35.755Z,71.60
2022-09-24T13:31:17.100Z,71.71
2022-09-24T13:33:48.435Z,71.49
2022-09-24T13:36:19.990Z,71.47
2022-09-24T13:38:56.284Z,72.85
2022-09-24T13:41:32.794Z,73.29
2022-09-24T13:44:07.277Z,74.16
2022-09-24T13:46:37.662Z,75.53
2022-09-24T13:49:13.157Z,75.59
2022-09-24T13:51:42.877Z,77.03
2022-09-24T13:54:21.085Z,76.89
2022-09-24T13:56:59.551Z,77.89
2022-09-24T13:59:29.039Z,78.74
2022-09-24T14:01:57.084Z,77.70
2022-09-24T14:04:25.248Z,78.43
2022-09-24T14:06:55.903Z,79.34
2022-09-24T14:09:31.937Z,81.38
2022-09-24T14:12:01.882Z,81.81
2022-09-24T14:14:35.866Z,83.64
2022-09-24T14:17:08.318Z,82.86
2022-09-24T14:19:36.630Z,84.13
2022-09-24T14:22:08.379Z,84.27
2022-09-24T14:24:44.612Z,85.92
2022-09-24T14:27:15.619Z,85.27
2022-09-24T14:29:48.622Z,85.77
2022-09-24T14:32:23.913Z,87.41
2022-09-24T14:34:55.749Z,88.46
2022-09-24T14:37:28.151Z,86.80
2022-09-24T14:40:02.741Z,88.39
2022-09-24T14:42:34.163Z,87.80
2022-09-24T14:45:07.751Z,88.28
2022-09-24T14:47:37.769Z,89.24
2022-09-24T14:50:25.819Z,89.98
2022-09-24T14:52:57.670Z,91.21
2022-09-24T14:55:38.703Z,91.59
2022-09-24T14:58:06.930Z,93.74
2022-09-24T15:00:47.481Z,94.17
2022-09-24T15:03:18.727Z,93.28
2022-09-24T15:05:47.112Z,94.53
2022-09-24T15:08:27.329Z,93.42
2022-09-24T15:10:56.341Z,94.10
2022-09-24T15:13:33.276Z,95.13
2022-09-24T15:16:20.241Z,96.64
2022-09-24T15:18:58.602Z,95.38
2022-09-24T15:21:27.807Z,95.71
2022-09-24T15:23:57.334Z,96.85
2022-09-24T15:26:30.512Z,96.09
2022-09-24T15:28:58.626Z,96.96
2022-09-24T15:31:28.286Z,96.26
2022-09-24T15:33:56.424Z,97.73
2022-09-24T15:36:25.034Z,98.12
2022-09-24T15:38:58.464Z,97.98
2022-09-24T15:41:26.202Z,98.75
2022-09-24T15:43:57.886Z,98.41
2022-09-24T15:46:27.374Z,98.70
2022-09-24T15:48:55.264Z,98.57
2022-09-24T15:51:24.125Z,98.99
2022-09-24T15:53:52.306Z,97.31
2022-09-24T15:56:20.187Z,97.80
2022-09-24T15:58:47.964Z,98.45
2022-09-24T16:01:19.340Z,98.46
2022-09-24T16:03:48.598Z,98.28
2022-09-24T16:06:16.425Z,99.27
2022-09-24T16:08:44.635Z,100.00
2022-09-24T16:11:12.389Z,99.23
2022-09-24T16:13:40.206Z,99.38
2022-09-24T16:16:08.862Z,98.23
2022-09-24T16:18:39.639Z,96.98
2022-09-24T16:21:09.587Z,98.47
2022-09-24T16:23:37.420Z,98.72
2022-09-24T16:26:05.817Z,97.78
2022-09-24T16:28:33.581Z,96.76
2022-09-24T16:31:06.680Z,97.08
2022-09-24T16:33:39.065Z,96.16
2022-09-24T16:36:07.363Z,95.06
2022-09-24T16:38:37.160Z,95.39
2022-09-24T16:41:06.437Z,94.77
2022-09-24T16:43:34.729Z,94.29
2022-09-24T16:46:03.680Z,93.59
2022-09-24T16:48:31.983Z,93.82
2022-09-24T16:51:04.270Z,91.53
2022-09-24T16:53:34.063Z,90.98
2022-09-24T16:56:08.815Z,92.04
2022-09-24T16:58:37.514Z,92.24
2022-09-24T17:01:06.659Z,91.53
2022-09-24T17:03:35.827Z,92.22
2022-09-24T17:06:04.220Z,93.50
2022-09-24T17:08:47.126Z,95.24
2022-09-24T17:11:16.713Z,97.27
2022-09-24T17:13:44.683Z,98.53
2022-09-24T17:16:12.470Z,99.10
2022-09-24T17:18:40.287Z,100.00
2022-09-24T17:21:11.090Z,100.00
2022-09-24T17:23:39.395Z,100.00
2022-09-24T17:26:09.201Z,99.83
2022-09-24T17:28:40.741Z,99.82
2022-09-24T17:31:10.983Z,98.45
2022-09-24T17:33:43.291Z,98.66
2022-09-24T17:36:14.142Z,98.09
2022-09-24T17:38:42.338Z,98.27
2022-09-24T17:41:12.741Z,97.53
2022-09-24T17:43:42.797Z,97.53
2022-09-24T17:46:14.384Z,98.64
2022-09-24T17:48:44.360Z,97.22
2022-09-24T17:51:13.798Z,98.04
2022-09-24T17:53:41.996Z,99.50
2022-09-24T17:56:13.427Z,99.27
2022-09-24T17:58:46.799Z,99.44
2022-09-24T18:01:17.328Z,100.00
2022-09-24T18:03:45.899Z,100.00
2022-09-24T18:06:15.765Z,100.00
2022-09-24T18:08:45.689Z,100.00
2022-09-24T18:11:15.215Z,100.00
2022-09-24T18:13:44.998Z,100.00
2022-09-24T18:16:14.911Z,100.00
2022-09-24T18:18:43.870Z,100.00
2022-09-24T18:21:13.432Z,100.00
2022-09-24T18:23:41.233Z,100.00
2022-09-24T18:26:11.730Z,100.00
2022-09-24T18:28:41.412Z,100.00
2022-09-24T18:31:11.609Z,100.00
2022-09-24T18:33:41.672Z,100.00
2022-09-24T18:36:11.422Z,100.00
2022-09-24T18:38:39.236Z,100.00
2022-09-24T18:41:09.614Z,100.00
2022-09-24T18:43:38.164Z,100.00
2022-09-24T18:46:07.606Z,100.00
2022-09-24T18:48:36.734Z,100.00
2022-09-24T18:51:05.059Z,100.00
2022-09-24T18:53:35.114Z,100.00
2022-09-24T18:56:05.784Z,100.00
2022-09-24T18:58:33.694Z,100.00
2022-09-24T19:01:02.198Z,100.00
2022-09-24T19:03:31.122Z,100.00
2022-09-24T19:06:04.733Z,100.00
2022-09-24T19:08:32.769Z,100.00
2022-09-24T19:11:04.886Z,100.00
2022-09-24T19:13:32.594Z,100.00
2022-09-24T19:16:05.311Z,100.00
2022-09-24T19:18:33.845Z,100.00
2022-09-24T19:21:06.548Z,100.00
2022-09-24T19:23:37.602Z,100.00
2022-09-24T19:26:06.812Z,100.00
2022-09-24T19:28:35.728Z,100.00
2022-09-24T19:31:04.014Z,100.00
2022-09-24T19:33:31.842Z,100.00
2022-09-24T19:36:02.106Z,100.00
2022-09-24T19:38:33.137Z,100.00
2022-09-24T19:41:03.014Z,100.00
2022-09-24T19:43:33.514Z,100.00
2022-09-24T19:46:03.236Z,100.00
2022-09-24T19:48:32.989Z,100.00
2022-09-24T19:51:02.599Z,100.00
2022-09-24T19:53:32.300Z,100.00
2022-09-24T19:56:00.602Z,100.00
2022-09-24T19:58:28.723Z,100.00
2022-09-24T20:01:01.877Z,100.00
2022-09-24T20:03:29.672Z,100.00
2022-09-24T20:05:57.465Z,100.00
2022-09-24T20:08:25.352Z,100.00
2022-09-24T20:10:54.585Z,100.00
2022-09-24T20:13:22.401Z,100.00
2022-09-24T20:15:58.690Z,100.00
2022-09-24T20:18:26.821Z,100.00
2022-09-24T20:20:55.378Z,100.00
2022-09-24T20:23:23.784Z,100.00
2022-09-24T20:26:09.349Z,100.00
2022-09-24T20:28:38.660Z,100.00
2022-09-24T20:31:10.135Z,100.00
2022-09-24T20:33:38.453Z,100.00
2022-09-24T20:36:14.690Z,100.00
2022-09-24T20:38:45.527Z,100.00
2022-09-24T20:41:15.377Z,100.00
2022-09-24T20:43:45.476Z,100.00
2022-09-24T20:46:16.534Z,100.00
2022-09-24T20:48:44.722Z,100.00
2022-09-24T20:51:15.889Z,100.00
2022-09-24T20:53:43.810Z,100.00
2022-09-24T20:56:12.212Z,100.00
2022-09-24T20:58:40.553Z,100.00
2022-09-24T21:01:10.970Z,100.00
2022-09-24T21:03:45.567Z,100.00
2022-09-24T21:06:15.266Z,100.00
2022-09-24T21:08:45.837Z,100.00
2022-09-24T21:11:17.924Z,100.00
2022-09-24T21:13:49.789Z,100.00
2022-09-24T21:16:20.779Z,100.00
2022-09-24T21:18:49.925Z,100.00
2022-09-24T21:21:19.570Z,100.00
2022-09-24T21:23:49.386Z,100.00
2022-09-24T21:26:18.977Z,100.00
2022-09-24T21:28:48.187Z,100.00
2022-09-24T21:31:19.082Z,100.00
2022-09-24T21:33:48.721Z,100.00
2022-09-24T21:36:18.525Z,100.00
2022-09-24T21:38:47.179Z,100.00
2022-09-24T21:41:15.127Z,100.00
2022-09-24T21:43:42.837Z,100.00
2022-09-24T21:46:10.782Z,100.00
2022-09-24T21:48:39.896Z,100.00
2022-09-24T21:51:10.333Z,100.00
2022-09-24T21:53:38.814Z,100.00
2022-09-24T21:56:07.663Z,100.00
2022-09-24T21:58:35.414Z,100.00
2022-09-24T22:01:07.253Z,100.00
2022-09-24T22:03:35.160Z,100.00
2022-09-24T22:06:05.102Z,100.00
2022-09-24T22:08:32.902Z,100.00
2022-09-24T22:11:02.475Z,100.00
2022-09-24T22:13:30.965Z,100.00
2022-09-24T22:15:59.775Z,100.00
2022-09-24T22:18:28.533Z,100.00
2022-09-24T22:20:57.577Z,100.00
2022-09-24T22:23:26.886Z,100.00
2022-09-24T22:25:56.386Z,100.00
2022-09-24T22:28:25.583Z,100.00
2022-09-24T22:30:54.044Z,100.00
2022-09-24T22:33:40.598Z,100.00
2022-09-24T22:36:09.097Z,100.00
2022-09-24T22:38:38.203Z,100.00
2022-09-24T22:41:08.338Z,100.00
2022-09-24T22:43:36.260Z,100.00
2022-09-24T22:46:06.033Z,100.00
2022-09-24T22:48:34.303Z,100.00
2022-09-24T22:51:02.789Z,100.00
2022-09-24T22:53:34.137Z,100.00
2022-09-24T22:56:09.433Z,100.00
2022-09-24T22:58:38.146Z,100.00
2022-09-24T23:01:09.794Z,100.00
2022-09-24T23:03:38.493Z,100.00
2022-09-24T23:06:07.152Z,100.00
2022-09-24T23:08:36.270Z,100.00
2022-09-24T23:11:11.121Z,100.00
2022-09-24T23:13:39.957Z,100.00
2022-09-24T23:16:10.211Z,100.00
2022-09-24T23:18:38.635Z,100.00
2022-09-24T23:21:07.855Z,100.00
2022-09-24T23:23:36.101Z,100.00
2022-09-24T23:26:06.561Z,100.00
2022-09-24T23:28:37.010Z,100.00
2022-09-24T23:31:05.569Z,100.00
2022-09-24T23:33:34.284Z,100.00
2022-09-24T23:36:02.800Z,100.00
2022-09-24T23:38:31.481Z,100.00
2022-09-24T23:41:00.606Z,100.00
2022-09-24T23:43:28.693Z,100.00
2022-09-24T23:45:58.388Z,100.00
2022-09-24T23:48:27.034Z,100.00
2022-09-24T23:50:55.387Z,100.00
2022-09-24T23:53:23.148Z,100.00
2022-09-24T23:55:51.718Z,100.00
2022-09-24T23:58:21.001Z,100.00
